createdAt,value
2018-08-18T00:04:24.318Z,22.80
2018-08-18T00:09:27.351Z,22.60
2018-08-18T00:14:31.408Z,22.40
2018-08-18T00:19:34.436Z,22.40
2018-08-18T00:24:41.303Z,22.40
2018-08-18T00:29:44.303Z,22.40
2018-08-18T00:34:53.547Z,22.50
2018-08-18T00:39:57.072Z,22.50
2018-08-18T00:45:00.163Z,22.40
2018-08-18T00:50:03.289Z,22.30
2018-08-18T00:55:06.340Z,22.20
2018-08-18T01:00:09.374Z,22.30
2018-08-18T01:05:12.388Z,22.40
2018-08-18T01:10:15.443Z,22.40
2018-08-18T01:15:22.879Z,22.50
2018-08-18T01:20:25.897Z,22.30
2018-08-18T01:25:28.953Z,22.20
2018-08-18T01:30:31.952Z,22.30
2018-08-18T01:35:34.978Z,22.20
2018-08-18T01:40:38.000Z,22.10
2018-08-18T01:45:41.115Z,21.90
2018-08-18T01:50:44.119Z,21.70
2018-08-18T01:55:47.221Z,21.80
2018-08-18T02:00:50.240Z,21.80
2018-08-18T02:05:53.277Z,21.60
2018-08-18T02:10:56.290Z,21.40
2018-08-18T02:15:59.439Z,21.30
2018-08-18T02:21:02.476Z,21.20
2018-08-18T02:26:05.575Z,21.20
2018-08-18T02:31:08.592Z,21.10
2018-08-18T02:36:11.634Z,21.10
2018-08-18T02:41:14.665Z,21.10
2018-08-18T02:46:24.354Z,21.10
2018-08-18T02:51:27.369Z,21.20
2018-08-18T02:56:35.971Z,21.00
2018-08-18T03:01:40.913Z,20.80
2018-08-18T03:06:43.943Z,20.80
2018-08-18T03:11:46.956Z,20.90
2018-08-18T03:16:49.976Z,20.80
2018-08-18T03:21:52.995Z,20.80
2018-08-18T03:26:57.151Z,20.80
2018-08-18T03:32:00.178Z,20.80
2018-08-18T03:37:04.105Z,20.80
2018-08-18T03:42:07.137Z,20.70
2018-08-18T03:47:10.144Z,20.70
2018-08-18T03:52:13.144Z,20.70
2018-08-18T03:57:16.166Z,20.70
2018-08-18T04:02:19.189Z,20.70
2018-08-18T04:07:22.645Z,20.60
2018-08-18T04:12:25.668Z,20.60
2018-08-18T04:17:31.025Z,20.60
2018-08-18T04:22:34.051Z,20.80
2018-08-18T04:27:41.582Z,21.00
2018-08-18T04:32:53.383Z,21.10
2018-08-18T04:37:57.430Z,21.00
2018-08-18T04:43:01.328Z,20.90
2018-08-18T04:48:04.840Z,21.10
2018-08-18T04:53:07.866Z,21.10
2018-08-18T04:58:10.961Z,21.20
2018-08-18T05:03:13.999Z,21.20
2018-08-18T05:08:17.040Z,21.20
2018-08-18T05:13:20.068Z,21.10
2018-08-18T05:18:23.169Z,21.10
2018-08-18T05:23:26.183Z,21.10
2018-08-18T05:28:29.272Z,21.00
2018-08-18T05:33:32.308Z,21.10
2018-08-18T05:38:35.323Z,21.10
2018-08-18T05:43:38.476Z,21.20
2018-08-18T05:48:41.510Z,21.20
2018-08-18T05:53:44.586Z,21.00
2018-08-18T05:58:53.652Z,20.90
2018-08-18T06:04:03.980Z,21.10
2018-08-18T06:09:09.162Z,21.10
2018-08-18T06:14:12.893Z,21.30
2018-08-18T06:19:15.943Z,21.40
2018-08-18T06:24:18.969Z,21.70
2018-08-18T06:29:21.993Z,21.90
2018-08-18T06:34:25.434Z,22.10
2018-08-18T06:39:38.556Z,22.10
2018-08-18T06:44:41.588Z,22.30
2018-08-18T06:49:44.664Z,22.50
2018-08-18T06:54:48.762Z,22.20
2018-08-18T06:59:51.738Z,22.10
2018-08-18T07:04:54.756Z,22.40
2018-08-18T07:09:57.809Z,22.80
2018-08-18T07:15:14.531Z,22.70
2018-08-18T07:20:17.940Z,23.10
2018-08-18T07:25:21.132Z,23.30
2018-08-18T07:30:24.288Z,23.60
2018-08-18T07:35:27.368Z,23.80
2018-08-18T07:40:35.856Z,23.70
2018-08-18T07:45:38.889Z,23.90
2018-08-18T07:50:41.963Z,24.30
2018-08-18T07:55:45.116Z,24.50
2018-08-18T08:00:48.154Z,24.70
2018-08-18T08:05:52.103Z,24.40
2018-08-18T08:11:00.216Z,24.40
2018-08-18T08:16:03.345Z,24.30
2018-08-18T08:21:07.353Z,24.30
2018-08-18T08:26:10.794Z,24.30
2018-08-18T08:31:14.649Z,24.30
2018-08-18T08:36:18.554Z,24.30
2018-08-18T08:41:24.521Z,24.10
2018-08-18T08:46:27.542Z,24.20
2018-08-18T08:51:30.552Z,24.30
2018-08-18T08:56:39.400Z,24.50
2018-08-18T09:01:42.498Z,24.70
2018-08-18T09:06:50.273Z,24.70
2018-08-18T09:11:53.428Z,24.60
2018-08-18T09:16:56.476Z,24.90
2018-08-18T09:22:02.064Z,25.00
2018-08-18T09:27:05.691Z,25.10
2018-08-18T09:32:09.903Z,25.60
2018-08-18T09:37:12.949Z,25.30
2018-08-18T09:42:17.128Z,25.20
2018-08-18T09:47:20.166Z,24.70
2018-08-18T09:52:24.605Z,25.30
2018-08-18T09:57:28.441Z,25.40
2018-08-18T10:02:32.063Z,24.60
2018-08-18T10:07:35.585Z,25.20
2018-08-18T10:12:39.709Z,25.90
2018-08-18T10:17:43.289Z,26.30
2018-08-18T10:22:47.314Z,26.30
2018-08-18T10:27:51.271Z,26.30
2018-08-18T10:32:55.838Z,26.70
2018-08-18T10:37:59.891Z,26.20
2018-08-18T10:43:02.911Z,26.50
2018-08-18T10:48:06.189Z,26.30
2018-08-18T10:53:09.244Z,25.50
2018-08-18T10:58:22.586Z,26.40
2018-08-18T11:03:25.594Z,27.10
2018-08-18T11:08:28.797Z,27.80
2018-08-18T11:13:32.189Z,28.30
2018-08-18T11:18:35.499Z,26.90
2018-08-18T11:23:38.513Z,26.50
2018-08-18T11:28:41.710Z,26.80
2018-08-18T11:33:44.984Z,26.70
2018-08-18T11:38:48.014Z,27.40
2018-08-18T11:43:51.567Z,27.70
2018-08-18T11:48:54.760Z,28.50
2018-08-18T11:54:00.709Z,29.60
2018-08-18T11:59:07.774Z,29.80
2018-08-18T12:04:10.889Z,30.10
2018-08-18T12:09:13.984Z,29.80
2018-08-18T12:14:19.088Z,29.80
2018-08-18T12:19:22.103Z,29.20
2018-08-18T12:24:25.132Z,30.10
2018-08-18T12:29:29.790Z,29.40
2018-08-18T12:34:32.794Z,30.00
2018-08-18T12:39:35.816Z,30.30
2018-08-18T12:44:38.887Z,30.60
2018-08-18T12:49:41.949Z,30.30
2018-08-18T12:54:45.224Z,30.30
2018-08-18T12:59:48.249Z,30.20
2018-08-18T13:04:51.515Z,28.90
2018-08-18T13:10:06.146Z,28.10
2018-08-18T13:15:09.225Z,27.40
2018-08-18T13:20:15.748Z,28.20
2018-08-18T13:25:18.782Z,29.10
2018-08-18T13:30:22.719Z,28.90
2018-08-18T13:35:25.769Z,28.80
2018-08-18T13:40:29.254Z,28.60
2018-08-18T13:45:43.509Z,29.30
2018-08-18T13:50:46.651Z,28.80
2018-08-18T13:55:49.708Z,28.10
2018-08-18T14:00:52.748Z,27.90
2018-08-18T14:05:56.232Z,28.10
2018-08-18T14:10:59.358Z,27.80
2018-08-18T14:16:02.481Z,27.50
2018-08-18T14:21:07.125Z,27.60
2018-08-18T14:26:10.187Z,28.10
2018-08-18T14:31:13.237Z,28.10
2018-08-18T14:36:17.017Z,27.90
2018-08-18T14:41:40.037Z,27.60
2018-08-18T14:46:43.190Z,27.80
2018-08-18T14:51:46.132Z,28.30
2018-08-18T14:56:49.167Z,28.60
2018-08-18T15:01:52.214Z,28.90
2018-08-18T15:06:55.293Z,29.40
2018-08-18T15:11:59.332Z,30.20
2018-08-18T15:17:02.388Z,29.70
2018-08-18T15:22:12.600Z,29.10
2018-08-18T15:27:15.628Z,29.10
2018-08-18T15:32:18.678Z,29.70
2018-08-18T15:37:21.726Z,30.10
2018-08-18T15:42:24.832Z,29.50
2018-08-18T15:47:28.753Z,29.70
2018-08-18T15:52:32.974Z,29.00
2018-08-18T15:57:36.015Z,28.80
2018-08-18T16:02:39.032Z,28.70
2018-08-18T16:07:42.327Z,29.00
2018-08-18T16:12:45.582Z,29.40
2018-08-18T16:17:48.677Z,29.70
2018-08-18T16:22:53.848Z,29.20
2018-08-18T16:27:56.933Z,28.90
2018-08-18T16:33:16.748Z,28.80
2018-08-18T16:38:19.782Z,28.60
2018-08-18T16:43:22.800Z,28.90
2018-08-18T16:48:25.846Z,29.10
2018-08-18T16:53:28.863Z,29.00
2018-08-18T16:58:32.016Z,29.60
2018-08-18T17:03:35.581Z,29.70
2018-08-18T17:08:38.635Z,29.80
2018-08-18T17:13:41.673Z,29.90
2018-08-18T17:18:44.693Z,29.90
2018-08-18T17:23:47.794Z,29.50
2018-08-18T17:28:50.814Z,28.70
2018-08-18T17:33:53.928Z,28.10
2018-08-18T17:38:57.791Z,27.60
2018-08-18T17:44:01.568Z,27.50
2018-08-18T17:49:04.620Z,27.30
2018-08-18T17:54:07.649Z,27.00
2018-08-18T17:59:10.751Z,26.90
2018-08-18T18:04:13.773Z,26.90
2018-08-18T18:09:16.820Z,26.90
2018-08-18T18:14:20.009Z,26.80
2018-08-18T18:19:23.029Z,26.50
2018-08-18T18:24:37.701Z,26.40
2018-08-18T18:29:42.534Z,26.10
2018-08-18T18:34:47.323Z,25.90
2018-08-18T18:39:58.973Z,25.70
2018-08-18T18:45:01.987Z,25.60
2018-08-18T18:50:05.900Z,25.50
2018-08-18T18:55:09.165Z,25.40
2018-08-18T19:00:12.195Z,25.30
2018-08-18T19:05:22.431Z,25.20
2018-08-18T19:10:25.472Z,25.10
2018-08-18T19:15:28.677Z,25.00
2018-08-18T19:20:31.877Z,24.90
2018-08-18T19:25:36.216Z,24.80
2018-08-18T19:30:39.360Z,24.60
2018-08-18T19:35:43.541Z,24.40
2018-08-18T19:40:47.725Z,24.20
2018-08-18T19:45:51.084Z,24.10
2018-08-18T19:50:59.554Z,23.90
2018-08-18T19:56:03.033Z,23.80
2018-08-18T20:01:06.565Z,23.70
2018-08-18T20:06:15.772Z,23.60
2018-08-18T20:11:19.010Z,23.40
2018-08-18T20:16:22.177Z,23.30
2018-08-18T20:21:25.192Z,23.10
2018-08-18T20:26:28.224Z,23.10
2018-08-18T20:31:31.263Z,23.00
2018-08-18T20:36:34.361Z,23.00
2018-08-18T20:41:37.789Z,22.90
2018-08-18T20:46:40.936Z,22.90
2018-08-18T20:51:44.023Z,22.70
2018-08-18T20:56:47.096Z,22.60
2018-08-18T21:01:50.105Z,22.60
2018-08-18T21:06:53.286Z,22.50
2018-08-18T21:11:56.514Z,22.50
2018-08-18T21:16:59.664Z,22.40
2018-08-18T21:22:02.901Z,22.40
2018-08-18T21:27:05.959Z,22.30
2018-08-18T21:32:09.008Z,22.20
2018-08-18T21:37:12.025Z,22.20
2018-08-18T21:42:15.095Z,22.10
2018-08-18T21:47:18.112Z,22.00
2018-08-18T21:52:21.141Z,22.00
2018-08-18T21:57:24.153Z,22.00
2018-08-18T22:02:39.196Z,21.90
2018-08-18T22:07:47.676Z,21.90
2018-08-18T22:12:50.692Z,21.90
2018-08-18T22:17:53.756Z,21.80
2018-08-18T22:22:56.830Z,21.70
2018-08-18T22:27:59.872Z,21.70
2018-08-18T22:33:02.942Z,21.60
2018-08-18T22:38:05.944Z,21.60
2018-08-18T22:43:08.980Z,21.60
2018-08-18T22:48:11.982Z,21.50
2018-08-18T22:53:15.004Z,21.50
2018-08-18T22:58:18.035Z,21.40
2018-08-18T23:03:21.080Z,21.30
2018-08-18T23:08:24.112Z,21.30
2018-08-18T23:13:27.208Z,21.20
2018-08-18T23:18:30.484Z,21.20
2018-08-18T23:23:33.523Z,21.20
2018-08-18T23:28:36.548Z,21.20
2018-08-18T23:33:39.587Z,21.20
2018-08-18T23:38:47.201Z,21.20
2018-08-18T23:43:50.368Z,21.10
2018-08-18T23:48:53.384Z,21.00
2018-08-18T23:53:56.433Z,20.90
2018-08-18T23:58:59.467Z,20.80
